createdAt,value
2023-01-02T00:01:48.399Z,2.90
2023-01-02T00:04:16.596Z,3.43
2023-01-02T00:06:44.799Z,2.23
2023-01-02T00:09:12.970Z,1.70
2023-01-02T00:11:42.540Z,2.37
2023-01-02T00:14:10.724Z,2.63
2023-01-02T00:16:39.052Z,2.23
2023-01-02T00:19:08.655Z,1.57
2023-01-02T00:21:37.923Z,1.97
2023-01-02T00:24:06.913Z,1.90
2023-01-02T00:26:35.205Z,1.83
2023-01-02T00:29:05.509Z,3.73
2023-01-02T00:31:33.746Z,3.10
2023-01-02T00:34:01.955Z,4.20
2023-01-02T00:36:30.204Z,2.67
2023-01-02T00:38:58.648Z,3.13
2023-01-02T00:41:26.995Z,5.00
2023-01-02T00:43:55.218Z,2.40
2023-01-02T00:46:24.999Z,2.03
2023-01-02T00:48:53.294Z,1.60
2023-01-02T00:51:21.604Z,1.80
2023-01-02T00:53:49.855Z,2.97
2023-01-02T00:56:18.075Z,2.00
2023-01-02T00:58:46.303Z,5.40
2023-01-02T01:01:14.780Z,3.30
2023-01-02T01:03:52.074Z,1.90
2023-01-02T01:06:25.470Z,3.20
2023-01-02T01:08:53.693Z,2.90
2023-01-02T01:11:21.886Z,5.10
2023-01-02T01:13:50.110Z,1.40
2023-01-02T01:16:20.586Z,2.47
2023-01-02T01:18:50.441Z,2.00
2023-01-02T01:21:21.669Z,3.33
2023-01-02T01:23:52.719Z,3.80
2023-01-02T01:26:22.651Z,2.93
2023-01-02T01:28:53.404Z,2.30
2023-01-02T01:31:22.444Z,3.13
2023-01-02T01:33:52.946Z,3.37
2023-01-02T01:36:24.858Z,2.83
2023-01-02T01:38:53.123Z,2.33
2023-01-02T01:41:23.754Z,5.93
2023-01-02T01:43:54.777Z,3.40
2023-01-02T01:46:32.371Z,2.10
2023-01-02T01:49:07.136Z,1.93
2023-01-02T01:51:41.683Z,5.50
2023-01-02T01:54:14.204Z,2.53
2023-01-02T01:56:48.809Z,2.47
2023-01-02T01:59:17.784Z,4.80
2023-01-02T02:01:48.375Z,3.43
2023-01-02T02:04:21.485Z,5.50
2023-01-02T02:06:51.129Z,1.77
2023-01-02T02:09:24.957Z,3.53
2023-01-02T02:11:56.104Z,3.83
2023-01-02T02:14:24.290Z,2.43
2023-01-02T02:16:59.982Z,3.07
2023-01-02T02:19:59.141Z,4.63
2023-01-02T02:22:59.871Z,3.73
2023-01-02T02:26:03.029Z,1.93
2023-01-02T02:29:09.823Z,4.20
2023-01-02T02:31:49.530Z,3.50
2023-01-02T02:34:24.770Z,4.97
2023-01-02T02:37:01.875Z,6.30
2023-01-02T02:39:40.629Z,4.70
2023-01-02T02:42:22.545Z,2.27
2023-01-02T02:45:00.025Z,1.97
2023-01-02T02:47:35.555Z,4.90
2023-01-02T02:50:10.758Z,5.30
2023-01-02T02:52:46.698Z,4.83
2023-01-02T02:55:22.055Z,2.93
2023-01-02T02:57:52.164Z,2.87
2023-01-02T03:00:24.116Z,3.10
2023-01-02T03:02:53.997Z,2.47
2023-01-02T03:05:27.155Z,4.03
2023-01-02T03:08:02.871Z,3.20
2023-01-02T03:10:43.211Z,7.30
2023-01-02T03:13:19.667Z,4.17
2023-01-02T03:16:01.175Z,5.00
2023-01-02T03:18:47.424Z,2.77
2023-01-02T03:21:27.944Z,3.20
2023-01-02T03:24:04.707Z,4.27
2023-01-02T03:26:36.153Z,2.57
2023-01-02T03:29:10.774Z,5.87
2023-01-02T03:31:41.747Z,3.97
2023-01-02T03:34:16.279Z,4.03
2023-01-02T03:36:49.211Z,1.90
2023-01-02T03:39:20.550Z,3.23
2023-01-02T03:41:57.423Z,3.10
2023-01-02T03:44:32.322Z,3.33
2023-01-02T03:47:11.865Z,3.17
2023-01-02T03:49:47.239Z,5.70
2023-01-02T03:52:18.721Z,4.30
2023-01-02T03:54:50.017Z,4.73
2023-01-02T03:57:29.711Z,2.70
2023-01-02T04:00:06.052Z,3.00
2023-01-02T04:02:47.668Z,5.30
2023-01-02T04:05:22.189Z,4.03
2023-01-02T04:07:58.249Z,3.50
2023-01-02T04:10:29.799Z,2.83
2023-01-02T04:13:04.087Z,5.07
2023-01-02T04:15:36.117Z,4.27
2023-01-02T04:18:10.103Z,3.33
2023-01-02T04:20:44.493Z,2.43
2023-01-02T04:23:18.188Z,3.20
2023-01-02T04:25:53.536Z,5.33
2023-01-02T04:28:26.413Z,3.70
2023-01-02T04:31:02.614Z,3.47
2023-01-02T04:33:33.157Z,2.63
2023-01-02T04:36:10.898Z,5.50
2023-01-02T04:38:39.668Z,2.53
2023-01-02T04:41:08.609Z,3.70
2023-01-02T04:43:36.840Z,4.13
2023-01-02T04:46:05.176Z,4.37
2023-01-02T04:48:33.496Z,2.73
2023-01-02T04:51:01.796Z,2.43
2023-01-02T04:53:31.414Z,3.13
2023-01-02T04:55:59.984Z,2.97
2023-01-02T04:58:28.260Z,3.17
2023-01-02T05:00:56.711Z,2.70
2023-01-02T05:03:25.394Z,3.93
2023-01-02T05:06:01.498Z,3.30
2023-01-02T05:08:33.723Z,3.43
2023-01-02T05:11:07.863Z,4.53
2023-01-02T05:13:36.824Z,4.27
2023-01-02T05:16:05.881Z,2.37
2023-01-02T05:18:34.231Z,4.63
2023-01-02T05:21:03.995Z,4.20
2023-01-02T05:23:50.555Z,4.57
2023-01-02T05:26:19.547Z,4.47
2023-01-02T05:28:47.955Z,6.33
2023-01-02T05:31:16.263Z,3.23
2023-01-02T05:33:44.534Z,4.10
2023-01-02T05:36:12.818Z,3.87
2023-01-02T05:38:42.401Z,3.77
2023-01-02T05:41:10.631Z,2.63
2023-01-02T05:43:39.521Z,7.63
2023-01-02T05:46:13.216Z,3.23
2023-01-02T05:48:42.407Z,4.40
2023-01-02T05:51:13.333Z,3.23
2023-01-02T05:53:43.413Z,4.17
2023-01-02T05:56:14.350Z,3.17
2023-01-02T05:58:44.881Z,4.27
2023-01-02T06:01:16.121Z,2.87
2023-01-02T06:03:46.966Z,3.23
2023-01-02T06:06:17.024Z,2.93
2023-01-02T06:08:46.610Z,3.23
2023-01-02T06:11:15.850Z,2.63
2023-01-02T06:13:44.169Z,3.77
2023-01-02T06:16:13.326Z,5.50
2023-01-02T06:18:42.081Z,2.60
2023-01-02T06:21:13.158Z,4.30
2023-01-02T06:23:42.644Z,2.67
2023-01-02T06:26:14.935Z,2.70
2023-01-02T06:28:44.263Z,3.00
2023-01-02T06:31:15.077Z,3.03
2023-01-02T06:33:44.264Z,2.00
2023-01-02T06:36:14.927Z,3.00
2023-01-02T06:38:47.689Z,2.03
2023-01-02T06:41:18.189Z,3.37
2023-01-02T06:43:48.703Z,1.93
2023-01-02T06:46:18.872Z,2.57
2023-01-02T06:48:47.986Z,2.63
2023-01-02T06:51:19.096Z,4.20
2023-01-02T06:53:47.624Z,3.50
2023-01-02T06:56:19.947Z,3.03
2023-01-02T06:58:48.517Z,2.47
2023-01-02T07:01:22.880Z,3.27
2023-01-02T07:03:57.491Z,2.87
2023-01-02T07:06:28.204Z,2.20
2023-01-02T07:08:56.562Z,4.77
2023-01-02T07:11:26.509Z,3.60
2023-01-02T07:13:56.697Z,3.03
2023-01-02T07:16:26.447Z,1.80
2023-01-02T07:18:55.677Z,2.53
2023-01-02T07:21:24.294Z,2.27
2023-01-02T07:23:52.578Z,3.13
2023-01-02T07:26:21.522Z,3.13
2023-01-02T07:28:51.075Z,2.87
2023-01-02T07:31:22.559Z,3.47
2023-01-02T07:33:51.487Z,2.83
2023-01-02T07:36:22.203Z,1.63
2023-01-02T07:38:51.966Z,3.30
2023-01-02T07:41:22.251Z,2.50
2023-01-02T07:43:52.497Z,5.33
2023-01-02T07:46:21.859Z,2.37
2023-01-02T07:48:50.530Z,1.90
2023-01-02T07:51:26.359Z,4.00
2023-01-02T07:53:56.919Z,2.70
2023-01-02T07:56:25.501Z,3.10
2023-01-02T07:58:55.234Z,3.20
2023-01-02T08:01:23.555Z,3.07
2023-01-02T08:03:51.911Z,4.50
2023-01-02T08:06:20.713Z,4.70
2023-01-02T08:08:49.244Z,2.33
2023-01-02T08:11:21.049Z,4.13
2023-01-02T08:13:49.828Z,2.77
2023-01-02T08:16:21.921Z,3.83
2023-01-02T08:18:55.450Z,4.87
2023-01-02T08:21:24.464Z,3.10
2023-01-02T08:23:52.697Z,4.73
2023-01-02T08:26:21.590Z,4.60
2023-01-02T08:28:49.825Z,4.90
2023-01-02T08:31:22.775Z,5.10
2023-01-02T08:33:51.009Z,5.00
2023-01-02T08:36:20.092Z,4.13
2023-01-02T08:38:49.014Z,6.03
2023-01-02T08:41:31.485Z,5.07
2023-01-02T08:43:59.874Z,4.40
2023-01-02T08:46:30.261Z,3.67
2023-01-02T08:48:58.778Z,3.70
2023-01-02T08:51:27.346Z,3.97
2023-01-02T08:53:56.013Z,3.27
2023-01-02T08:56:26.487Z,3.27
2023-01-02T08:58:56.538Z,5.30
2023-01-02T09:01:50.703Z,4.20
2023-01-02T09:07:17.088Z,4.47
2023-01-02T09:09:45.331Z,4.30
2023-01-02T09:12:13.557Z,3.13
2023-01-02T09:14:41.793Z,2.20
2023-01-02T09:17:10.605Z,2.40
2023-01-02T09:19:41.215Z,2.50
2023-01-02T09:22:10.364Z,4.30
2023-01-02T09:24:39.593Z,2.23
2023-01-02T09:27:07.790Z,4.13
2023-01-02T09:29:36.018Z,4.70
2023-01-02T09:32:04.273Z,3.87
2023-01-02T09:34:32.559Z,4.13
2023-01-02T09:37:02.660Z,4.20
2023-01-02T09:39:32.881Z,4.67
2023-01-02T09:42:04.476Z,7.40
2023-01-02T09:44:41.165Z,5.83
2023-01-02T09:47:16.044Z,6.63
2023-01-02T09:49:48.662Z,6.47
2023-01-02T09:52:23.080Z,11.03
2023-01-02T09:54:51.350Z,9.57
2023-01-02T09:57:40.116Z,5.63
2023-01-02T10:00:15.855Z,4.47
2023-01-02T10:03:07.996Z,4.80
2023-01-02T10:06:13.479Z,5.67
2023-01-02T10:08:54.188Z,6.73
2023-01-02T10:11:41.514Z,3.37
2023-01-02T10:14:20.522Z,2.57
2023-01-02T10:16:54.405Z,3.47
2023-01-02T10:19:29.135Z,4.27
2023-01-02T10:22:01.784Z,2.77
2023-01-02T10:24:41.751Z,2.20
2023-01-02T10:27:17.592Z,3.60
2023-01-02T10:29:52.181Z,4.60
2023-01-02T10:32:23.042Z,4.03
2023-01-02T10:35:01.620Z,6.57
2023-01-02T10:37:30.305Z,4.10
2023-01-02T10:40:00.104Z,5.63
2023-01-02T10:42:28.724Z,8.13
2023-01-02T10:44:56.968Z,5.23
2023-01-02T10:47:34.781Z,5.77
2023-01-02T10:50:06.019Z,12.27
2023-01-02T10:52:37.182Z,10.23
2023-01-02T10:55:07.655Z,7.53
2023-01-02T10:57:42.271Z,6.27
2023-01-02T11:00:30.352Z,3.87
2023-01-02T11:03:10.125Z,5.80
2023-01-02T11:05:47.942Z,4.50
2023-01-02T11:08:19.729Z,7.10
2023-01-02T11:10:50.442Z,4.57
2023-01-02T11:13:21.009Z,2.95
2023-01-02T11:15:52.838Z,5.43
2023-01-02T11:18:26.129Z,4.57
2023-01-02T11:21:04.135Z,4.82
2023-01-02T11:23:37.383Z,4.97
2023-01-02T11:26:14.482Z,6.32
2023-01-02T11:28:43.715Z,6.30
2023-01-02T11:31:16.398Z,4.53
2023-01-02T11:33:46.917Z,3.25
2023-01-02T11:36:20.233Z,6.30
2023-01-02T11:38:50.774Z,3.38
2023-01-02T11:41:50.457Z,5.68
2023-01-02T11:44:25.875Z,3.70
2023-01-02T11:46:55.088Z,3.70
2023-01-02T11:49:28.044Z,5.43
2023-01-02T11:52:02.501Z,4.65
2023-01-02T11:54:40.327Z,3.42
2023-01-02T11:57:18.926Z,3.15
2023-01-02T11:59:49.792Z,5.78
2023-01-02T12:02:27.330Z,7.93
2023-01-02T12:04:56.464Z,3.13
2023-01-02T12:07:43.265Z,9.00
2023-01-02T12:10:28.162Z,3.45
2023-01-02T12:13:31.417Z,5.22
2023-01-02T12:16:15.458Z,7.93
2023-01-02T12:19:02.471Z,4.45
2023-01-02T12:21:39.673Z,3.95
2023-01-02T12:24:48.391Z,3.05
2023-01-02T12:27:22.697Z,5.55
2023-01-02T12:30:05.492Z,8.02
2023-01-02T12:33:05.255Z,5.78
2023-01-02T12:36:15.523Z,6.57
2023-01-02T12:39:29.226Z,4.82
2023-01-02T12:42:18.798Z,4.63
2023-01-02T12:44:53.607Z,6.20
2023-01-02T12:47:47.661Z,6.25
2023-01-02T12:50:37.170Z,7.18
2023-01-02T12:53:24.442Z,6.35
2023-01-02T12:56:03.578Z,6.85
2023-01-02T12:58:50.308Z,5.03
2023-01-02T13:01:23.312Z,4.68
2023-01-02T13:04:02.952Z,6.38
2023-01-02T13:06:47.092Z,6.88
2023-01-02T13:09:25.076Z,7.53
2023-01-02T13:12:01.888Z,8.18
2023-01-02T13:14:39.245Z,8.38
2023-01-02T13:17:31.568Z,9.57
2023-01-02T13:20:08.253Z,12.80
2023-01-02T13:22:47.748Z,6.18
2023-01-02T13:25:22.512Z,5.65
2023-01-02T13:28:00.182Z,6.43
2023-01-02T13:30:41.192Z,6.43
2023-01-02T13:33:24.006Z,6.90
2023-01-02T13:35:53.777Z,8.57
2023-01-02T13:38:29.855Z,7.13
2023-01-02T13:41:00.701Z,7.78
2023-01-02T13:43:32.226Z,9.75
2023-01-02T13:46:01.876Z,6.13
2023-01-02T13:48:36.424Z,5.80
2023-01-02T13:51:14.704Z,8.88
2023-01-02T13:53:45.525Z,5.97
2023-01-02T13:56:15.768Z,8.93
2023-01-02T13:58:50.274Z,9.15
2023-01-02T14:01:56.287Z,6.93
2023-01-02T14:04:39.910Z,7.72
2023-01-02T14:07:46.254Z,8.07
2023-01-02T14:10:35.360Z,5.57
2023-01-02T14:13:26.235Z,7.53
2023-01-02T14:16:24.450Z,6.97
2023-01-02T14:19:22.689Z,7.90
2023-01-02T14:22:05.961Z,8.38
2023-01-02T14:24:39.984Z,5.57
2023-01-02T14:27:22.738Z,9.68
2023-01-02T14:29:54.007Z,7.25
2023-01-02T14:32:27.533Z,4.50
2023-01-02T14:34:59.027Z,8.93
2023-01-02T14:37:39.212Z,9.30
2023-01-02T14:40:19.124Z,9.13
2023-01-02T14:43:12.267Z,7.72
2023-01-02T14:45:44.778Z,6.28
2023-01-02T14:48:18.180Z,8.13
2023-01-02T14:50:50.205Z,5.75
2023-01-02T14:53:23.560Z,8.35
2023-01-02T14:55:58.380Z,9.63
2023-01-02T14:58:37.210Z,10.18
2023-01-02T15:01:07.207Z,5.93
2023-01-02T15:03:49.559Z,9.73
2023-01-02T15:06:30.184Z,9.38
2023-01-02T15:09:10.815Z,9.50
2023-01-02T15:12:10.913Z,9.15
2023-01-02T15:14:40.583Z,6.72
2023-01-02T15:17:11.455Z,5.03
2023-01-02T15:19:42.373Z,6.68
2023-01-02T15:22:12.262Z,7.90
2023-01-02T15:24:41.233Z,8.07
2023-01-02T15:27:25.388Z,9.63
2023-01-02T15:29:57.889Z,12.98
2023-01-02T15:32:28.629Z,5.90
2023-01-02T15:35:14.736Z,8.20
2023-01-02T15:37:44.833Z,11.60
2023-01-02T15:40:17.141Z,7.53
2023-01-02T15:43:04.447Z,6.73
2023-01-02T15:45:34.104Z,11.00
2023-01-02T15:48:02.971Z,8.13
2023-01-02T15:50:33.062Z,10.20
2023-01-02T15:53:05.655Z,12.07
2023-01-02T15:55:38.817Z,7.63
2023-01-02T15:58:27.430Z,13.33
2023-01-02T16:01:16.792Z,7.80
2023-01-02T16:04:00.752Z,7.60
2023-01-02T16:06:35.374Z,7.47
2023-01-02T16:09:07.878Z,10.63
2023-01-02T16:11:46.245Z,11.47
2023-01-02T16:14:20.762Z,6.30
2023-01-02T16:16:53.079Z,12.60
2023-01-02T16:19:26.709Z,7.50
2023-01-02T16:22:06.098Z,7.17
2023-01-02T16:24:37.153Z,9.73
2023-01-02T16:27:06.840Z,7.67
2023-01-02T16:29:43.621Z,6.40
2023-01-02T16:32:29.884Z,11.10
2023-01-02T16:35:06.041Z,7.30
2023-01-02T16:37:38.821Z,9.77
2023-01-02T16:41:00.452Z,10.77
2023-01-02T16:43:33.394Z,40.40
2023-01-02T16:46:12.394Z,12.17
2023-01-02T16:48:42.088Z,16.50
2023-01-02T16:51:10.582Z,8.83
2023-01-02T16:53:43.265Z,11.23
2023-01-02T16:56:12.769Z,6.90
2023-01-02T16:58:41.092Z,11.60
2023-01-02T17:01:13.462Z,6.50
2023-01-02T17:03:43.480Z,10.10
2023-01-02T17:06:19.155Z,9.20
2023-01-02T17:08:48.071Z,9.23
2023-01-02T17:11:18.827Z,17.50
2023-01-02T17:13:47.182Z,6.37
2023-01-02T17:16:16.970Z,9.77
2023-01-02T17:18:45.271Z,10.57
2023-01-02T17:21:13.717Z,9.00
2023-01-02T17:23:42.002Z,6.50
2023-01-02T17:26:10.340Z,8.43
2023-01-02T17:28:38.544Z,11.87
2023-01-02T17:31:06.922Z,11.83
2023-01-02T17:33:36.468Z,13.60
2023-01-02T17:36:07.674Z,7.83
2023-01-02T17:38:36.201Z,9.13
2023-01-02T17:41:04.634Z,8.83
2023-01-02T17:43:33.927Z,9.63
2023-01-02T17:46:30.518Z,9.67
2023-01-02T17:48:56.178Z,8.03
2023-01-02T17:51:24.388Z,7.13
2023-01-02T17:53:55.881Z,11.60
2023-01-02T17:56:24.512Z,9.77
2023-01-02T17:58:52.834Z,10.07
2023-01-02T18:01:22.043Z,7.50
2023-01-02T18:03:50.424Z,5.60
2023-01-02T18:06:20.712Z,3.17
2023-01-02T18:08:49.129Z,6.67
2023-01-02T18:11:18.196Z,7.97
2023-01-02T18:13:49.568Z,6.67
2023-01-02T18:16:22.098Z,4.97
2023-01-02T18:18:53.321Z,6.00
2023-01-02T18:21:26.448Z,14.00
2023-01-02T18:24:00.474Z,5.13
2023-01-02T18:26:29.140Z,7.00
2023-01-02T18:29:02.956Z,5.20
2023-01-02T18:31:41.314Z,4.53
2023-01-02T18:34:46.487Z,6.23
2023-01-02T18:37:20.067Z,4.47
2023-01-02T18:39:49.343Z,4.27
2023-01-02T18:42:21.802Z,5.23
2023-01-02T18:44:50.967Z,3.23
2023-01-02T18:47:28.599Z,4.90
2023-01-02T18:50:03.167Z,3.93
2023-01-02T18:52:34.913Z,3.87
2023-01-02T18:55:17.874Z,8.90
2023-01-02T18:57:48.578Z,7.97
2023-01-02T19:00:25.875Z,4.27
2023-01-02T19:02:58.788Z,6.23
2023-01-02T19:05:30.292Z,5.60
2023-01-02T19:08:16.136Z,4.33
2023-01-02T19:10:48.721Z,5.57
2023-01-02T19:13:20.348Z,4.80
2023-01-02T19:15:51.880Z,2.83
2023-01-02T19:18:35.477Z,3.17
2023-01-02T19:21:18.850Z,2.00
2023-01-02T19:23:53.999Z,2.87
2023-01-02T19:26:28.366Z,6.00
2023-01-02T19:29:00.866Z,1.27
2023-01-02T19:31:41.491Z,1.80
2023-01-02T19:34:27.639Z,1.30
2023-01-02T19:37:21.513Z,1.93
2023-01-02T19:39:54.335Z,1.80
2023-01-02T19:42:25.120Z,2.87
2023-01-02T19:44:55.357Z,2.60
2023-01-02T19:47:26.384Z,1.87
2023-01-02T19:49:55.444Z,1.10
2023-01-02T19:52:25.496Z,1.80
2023-01-02T19:54:55.290Z,2.60
2023-01-02T19:57:25.044Z,3.30
2023-01-02T19:59:55.653Z,2.37
2023-01-02T20:02:25.188Z,3.20
2023-01-02T20:04:55.405Z,2.20
2023-01-02T20:07:25.539Z,3.37
2023-01-02T20:09:55.149Z,2.73
2023-01-02T20:12:34.589Z,2.03
2023-01-02T20:15:07.662Z,3.07
2023-01-02T20:17:37.483Z,2.50
2023-01-02T20:20:07.555Z,1.47
2023-01-02T20:22:36.418Z,1.83
2023-01-02T20:25:07.305Z,1.20
2023-01-02T20:27:35.549Z,4.10
2023-01-02T20:30:04.882Z,3.20
2023-01-02T20:32:33.072Z,1.70
2023-01-02T20:35:01.285Z,2.80
2023-01-02T20:37:31.045Z,7.97
2023-01-02T20:39:59.512Z,15.83
2023-01-02T20:42:29.477Z,2.03
2023-01-02T20:44:57.744Z,1.37
2023-01-02T20:47:26.024Z,1.63
2023-01-02T20:49:54.280Z,1.60
2023-01-02T20:52:22.508Z,4.77
2023-01-02T20:57:24.070Z,2.37
2023-01-02T20:59:53.870Z,1.70
2023-01-02T21:02:22.309Z,1.47
2023-01-02T21:04:50.695Z,1.50
2023-01-02T21:07:24.109Z,1.60
2023-01-02T21:09:57.492Z,1.60
2023-01-02T21:12:43.435Z,1.93
2023-01-02T21:15:33.943Z,1.67
2023-01-02T21:18:02.334Z,2.80
2023-01-02T21:20:30.523Z,3.80
2023-01-02T21:22:58.742Z,3.03
2023-01-02T21:25:27.080Z,1.60
2023-01-02T21:27:55.296Z,1.70
2023-01-02T21:30:25.176Z,1.13
2023-01-02T21:32:54.240Z,1.87
2023-01-02T21:35:22.436Z,2.13
2023-01-02T21:37:52.287Z,3.40
2023-01-02T21:40:20.709Z,1.40
2023-01-02T21:42:49.183Z,1.80
2023-01-02T21:45:17.625Z,1.80
2023-01-02T21:47:47.242Z,1.53
2023-01-02T21:50:15.687Z,1.90
2023-01-02T21:52:43.982Z,2.57
2023-01-02T21:55:17.462Z,2.17
2023-01-02T21:58:12.306Z,1.43
2023-01-02T22:00:34.193Z,2.00
2023-01-02T22:03:03.822Z,1.70
2023-01-02T22:05:32.166Z,2.07
2023-01-02T22:08:00.385Z,2.70
2023-01-02T22:10:28.807Z,1.57
2023-01-02T22:12:57.171Z,1.40
2023-01-02T22:15:25.621Z,2.20
2023-01-02T22:17:55.227Z,1.47
2023-01-02T22:20:24.792Z,1.40
2023-01-02T22:22:52.989Z,1.23
2023-01-02T22:25:21.235Z,1.53
2023-01-02T22:27:49.514Z,1.30
2023-01-02T22:30:22.110Z,1.20
2023-01-02T22:32:55.175Z,2.13
2023-01-02T22:35:24.823Z,1.40
2023-01-02T22:37:53.021Z,1.20
2023-01-02T22:40:21.309Z,1.03
2023-01-02T22:43:04.995Z,1.40
2023-01-02T22:45:41.173Z,1.40
2023-01-02T22:48:19.255Z,1.43
2023-01-02T22:50:51.806Z,1.23
2023-01-02T22:53:31.942Z,1.50
2023-01-02T22:56:01.923Z,1.20
2023-01-02T22:58:30.189Z,1.10
2023-01-02T23:01:02.765Z,1.53
2023-01-02T23:03:35.500Z,0.97
2023-01-02T23:06:05.225Z,1.20
2023-01-02T23:08:33.587Z,1.03
2023-01-02T23:11:02.672Z,1.10
2023-01-02T23:13:31.003Z,1.50
2023-01-02T23:16:17.433Z,1.10
2023-01-02T23:19:03.353Z,0.90
2023-01-02T23:21:35.236Z,1.03
2023-01-02T23:24:04.723Z,1.10
2023-01-02T23:26:37.990Z,0.90
2023-01-02T23:29:08.161Z,1.00
2023-01-02T23:31:39.723Z,1.10
2023-01-02T23:34:08.595Z,2.80
2023-01-02T23:36:39.064Z,1.10
2023-01-02T23:39:12.059Z,1.20
2023-01-02T23:41:41.317Z,1.20
2023-01-02T23:44:10.575Z,0.93
2023-01-02T23:46:39.291Z,1.00
2023-01-02T23:49:08.590Z,0.97
2023-01-02T23:51:38.738Z,1.20
2023-01-02T23:54:08.541Z,1.37
2023-01-02T23:56:38.988Z,1.10
2023-01-02T23:59:14.304Z,1.10
